createdAt,value
2019-05-23T00:01:34.648Z,23.20
2019-05-23T00:04:07.526Z,22.90
2019-05-23T00:06:37.456Z,22.43
2019-05-23T00:09:06.752Z,25.40
2019-05-23T00:11:53.012Z,25.10
2019-05-23T00:14:46.540Z,23.50
2019-05-23T00:17:18.718Z,24.20
2019-05-23T00:19:47.714Z,24.60
2019-05-23T00:22:16.996Z,24.67
2019-05-23T00:24:46.055Z,26.00
2019-05-23T00:27:17.066Z,27.70
2019-05-23T00:29:48.030Z,25.93
2019-05-23T00:32:24.600Z,26.13
2019-05-23T00:34:54.874Z,26.30
2019-05-23T00:37:24.529Z,27.40
2019-05-23T00:39:54.073Z,28.33
2019-05-23T00:42:22.842Z,26.40
2019-05-23T00:44:52.303Z,26.37
2019-05-23T00:47:20.811Z,26.77
2019-05-23T00:49:50.179Z,26.23
2019-05-23T00:52:19.019Z,28.43
2019-05-23T00:54:48.338Z,28.93
2019-05-23T00:57:18.599Z,28.87
2019-05-23T00:59:48.685Z,28.67
2019-05-23T01:02:17.305Z,27.63
2019-05-23T01:04:47.609Z,26.03
2019-05-23T01:07:17.029Z,26.57
2019-05-23T01:09:46.130Z,26.47
2019-05-23T01:12:14.918Z,27.23
2019-05-23T01:14:43.456Z,26.77
2019-05-23T01:17:12.069Z,27.80
2019-05-23T01:19:41.019Z,29.20
2019-05-23T01:22:12.591Z,26.87
2019-05-23T01:24:45.643Z,27.77
2019-05-23T01:27:14.178Z,26.33
2019-05-23T01:29:49.675Z,25.50
2019-05-23T01:32:29.556Z,26.40
2019-05-23T01:34:58.681Z,25.07
2019-05-23T01:37:27.239Z,25.40
2019-05-23T01:39:55.755Z,26.63
2019-05-23T01:42:26.243Z,24.87
2019-05-23T01:44:55.674Z,24.90
2019-05-23T01:47:24.270Z,27.37
2019-05-23T01:49:53.238Z,26.43
2019-05-23T01:52:22.438Z,26.73
2019-05-23T01:54:51.123Z,24.63
2019-05-23T01:57:19.741Z,23.27
2019-05-23T01:59:48.269Z,26.73
2019-05-23T02:02:18.641Z,24.57
2019-05-23T02:04:47.329Z,26.60
2019-05-23T02:07:16.521Z,26.20
2019-05-23T02:09:44.971Z,24.90
2019-05-23T02:12:14.039Z,26.70
2019-05-23T02:14:44.267Z,27.33
2019-05-23T02:17:14.525Z,26.10
2019-05-23T02:19:43.464Z,26.40
2019-05-23T02:22:13.282Z,27.07
2019-05-23T02:24:42.320Z,26.07
2019-05-23T02:27:12.008Z,26.33
2019-05-23T02:29:42.853Z,24.70
2019-05-23T02:32:12.067Z,25.80
2019-05-23T02:34:41.264Z,26.50
2019-05-23T02:37:20.137Z,25.80
2019-05-23T02:39:52.918Z,26.80
2019-05-23T02:42:38.532Z,27.03
2019-05-23T02:45:10.001Z,25.97
2019-05-23T02:47:43.174Z,26.90
2019-05-23T02:50:16.247Z,26.27
2019-05-23T02:52:50.599Z,26.03
2019-05-23T02:55:25.029Z,26.27
2019-05-23T02:57:55.222Z,27.37
2019-05-23T03:00:54.312Z,26.93
2019-05-23T03:03:19.444Z,27.93
2019-05-23T03:05:48.310Z,29.97
2019-05-23T03:08:17.268Z,28.67
2019-05-23T03:11:07.163Z,28.40
2019-05-23T03:13:37.444Z,27.10
2019-05-23T03:16:07.667Z,28.23
2019-05-23T03:18:40.309Z,28.43
2019-05-23T03:21:08.984Z,30.13
2019-05-23T03:23:37.887Z,31.87
2019-05-23T03:26:21.123Z,29.83
2019-05-23T03:28:50.170Z,29.47
2019-05-23T03:31:30.630Z,30.47
2019-05-23T03:33:54.978Z,29.20
2019-05-23T03:36:24.910Z,32.73
2019-05-23T03:38:55.220Z,33.80
2019-05-23T03:41:24.095Z,30.10
2019-05-23T03:43:55.599Z,29.73
2019-05-23T03:46:25.924Z,29.27
2019-05-23T03:48:56.050Z,30.90
2019-05-23T03:51:25.215Z,29.10
2019-05-23T03:53:54.584Z,28.53
2019-05-23T03:56:23.002Z,30.10
2019-05-23T03:58:54.280Z,28.90
2019-05-23T04:01:24.319Z,28.73
2019-05-23T04:03:54.704Z,28.07
2019-05-23T04:06:23.774Z,28.40
2019-05-23T04:08:53.126Z,28.70
2019-05-23T04:11:21.681Z,28.90
2019-05-23T04:13:50.815Z,31.83
2019-05-23T04:16:20.172Z,29.87
2019-05-23T04:18:49.049Z,29.43
2019-05-23T04:21:19.077Z,28.50
2019-05-23T04:23:47.528Z,28.40
2019-05-23T04:26:16.160Z,29.77
2019-05-23T04:28:44.750Z,32.37
2019-05-23T04:31:13.697Z,28.87
2019-05-23T04:33:42.490Z,29.07
2019-05-23T04:36:10.902Z,29.20
2019-05-23T04:38:39.562Z,29.80
2019-05-23T04:41:07.992Z,30.43
2019-05-23T04:43:36.397Z,27.77
2019-05-23T04:46:05.623Z,30.83
2019-05-23T04:48:34.408Z,30.23
2019-05-23T04:51:04.126Z,32.23
2019-05-23T04:53:32.821Z,31.70
2019-05-23T04:56:01.888Z,32.17
2019-05-23T04:58:31.254Z,31.00
2019-05-23T05:01:00.712Z,31.00
2019-05-23T05:03:30.321Z,30.63
2019-05-23T05:05:58.876Z,29.50
2019-05-23T05:08:27.366Z,28.67
2019-05-23T05:10:56.347Z,31.47
2019-05-23T05:13:26.052Z,31.40
2019-05-23T05:15:55.901Z,32.20
2019-05-23T05:18:24.726Z,27.30
2019-05-23T05:20:53.465Z,27.43
2019-05-23T05:23:22.155Z,29.40
2019-05-23T05:25:50.543Z,30.13
2019-05-23T05:28:19.705Z,28.90
2019-05-23T05:30:48.278Z,28.43
2019-05-23T05:33:17.589Z,28.70
2019-05-23T05:35:46.313Z,28.17
2019-05-23T05:38:17.194Z,27.40
2019-05-23T05:40:46.400Z,27.03
2019-05-23T05:43:15.128Z,31.50
2019-05-23T05:45:44.169Z,31.13
2019-05-23T05:48:12.805Z,36.17
2019-05-23T05:50:41.200Z,28.83
2019-05-23T05:53:10.266Z,30.07
2019-05-23T05:55:38.664Z,28.40
2019-05-23T05:58:07.616Z,30.93
2019-05-23T06:00:49.703Z,29.87
2019-05-23T06:03:18.172Z,28.50
2019-05-23T06:05:48.205Z,29.83
2019-05-23T06:08:18.549Z,28.20
2019-05-23T06:10:47.108Z,26.03
2019-05-23T06:13:16.085Z,28.73
2019-05-23T06:15:44.856Z,27.83
2019-05-23T06:18:13.639Z,28.37
2019-05-23T06:20:44.939Z,29.30
2019-05-23T06:23:13.411Z,28.90
2019-05-23T06:25:41.980Z,28.13
2019-05-23T06:28:11.844Z,26.77
2019-05-23T06:30:41.652Z,26.93
2019-05-23T06:33:22.700Z,28.00
2019-05-23T06:35:41.364Z,25.30
2019-05-23T06:38:10.964Z,26.13
2019-05-23T06:40:40.160Z,26.93
2019-05-23T06:43:09.555Z,27.00
2019-05-23T06:45:40.502Z,25.27
2019-05-23T06:48:09.919Z,29.67
2019-05-23T06:50:38.539Z,26.67
2019-05-23T06:53:07.284Z,26.30
2019-05-23T06:55:35.833Z,27.60
2019-05-23T06:58:05.723Z,25.63
2019-05-23T07:00:35.184Z,29.47
2019-05-23T07:03:04.355Z,29.27
2019-05-23T07:05:35.809Z,28.30
2019-05-23T07:08:05.339Z,29.53
2019-05-23T07:10:34.064Z,33.23
2019-05-23T07:13:03.124Z,31.47
2019-05-23T07:15:32.000Z,29.30
2019-05-23T07:18:01.735Z,28.57
2019-05-23T07:20:30.378Z,26.83
2019-05-23T07:22:59.706Z,32.53
2019-05-23T07:25:28.163Z,28.30
2019-05-23T07:27:56.854Z,32.17
2019-05-23T07:30:26.682Z,31.57
2019-05-23T07:32:55.648Z,32.20
2019-05-23T07:35:25.963Z,31.03
2019-05-23T07:37:54.412Z,31.60
2019-05-23T07:40:26.046Z,32.60
2019-05-23T07:42:54.609Z,32.07
2019-05-23T07:45:27.860Z,38.90
2019-05-23T07:47:56.279Z,31.33
2019-05-23T07:50:24.662Z,30.50
2019-05-23T07:52:55.261Z,31.70
2019-05-23T07:55:28.219Z,29.63
2019-05-23T07:57:56.920Z,29.10
2019-05-23T08:00:29.720Z,30.40
2019-05-23T08:03:00.647Z,31.37
2019-05-23T08:05:29.171Z,27.27
2019-05-23T08:07:57.942Z,28.50
2019-05-23T08:10:33.619Z,29.40
2019-05-23T08:12:58.062Z,28.10
2019-05-23T08:15:27.842Z,34.17
2019-05-23T08:17:56.538Z,27.50
2019-05-23T08:20:25.933Z,25.07
2019-05-23T08:22:54.686Z,26.10
2019-05-23T08:25:23.585Z,25.57
2019-05-23T08:27:52.391Z,25.10
2019-05-23T08:30:21.477Z,23.63
2019-05-23T08:32:49.867Z,24.27
2019-05-23T08:35:18.363Z,24.27
2019-05-23T08:37:47.401Z,25.63
2019-05-23T08:40:17.024Z,23.30
2019-05-23T08:42:45.908Z,21.20
2019-05-23T08:45:17.402Z,21.40
2019-05-23T08:47:46.319Z,20.40
2019-05-23T08:50:16.909Z,21.30
2019-05-23T08:52:45.758Z,21.67
2019-05-23T08:55:20.160Z,21.17
2019-05-23T08:57:48.712Z,20.70
2019-05-23T09:00:18.374Z,18.80
2019-05-23T09:02:48.057Z,20.97
2019-05-23T09:05:18.963Z,21.33
2019-05-23T09:07:48.403Z,21.47
2019-05-23T09:10:17.885Z,20.57
2019-05-23T09:12:46.601Z,20.37
2019-05-23T09:15:15.357Z,19.50
2019-05-23T09:17:52.942Z,22.40
2019-05-23T09:20:15.047Z,21.67
2019-05-23T09:22:43.451Z,20.97
2019-05-23T09:25:12.775Z,21.37
2019-05-23T09:27:41.559Z,22.80
2019-05-23T09:30:11.763Z,22.10
2019-05-23T09:32:40.996Z,24.60
2019-05-23T09:35:20.827Z,25.63
2019-05-23T09:37:42.201Z,24.97
2019-05-23T09:40:11.204Z,25.50
2019-05-23T09:42:39.606Z,26.00
2019-05-23T09:45:08.119Z,26.63
2019-05-23T09:47:36.996Z,23.40
2019-05-23T09:50:10.547Z,25.37
2019-05-23T09:52:39.118Z,26.80
2019-05-23T09:55:08.320Z,26.77
2019-05-23T09:57:36.710Z,25.77
2019-05-23T10:00:10.994Z,26.07
2019-05-23T10:02:39.958Z,23.77
2019-05-23T10:05:10.705Z,24.03
2019-05-23T10:07:39.602Z,24.63
2019-05-23T10:10:16.587Z,27.23
2019-05-23T10:12:45.107Z,22.77
2019-05-23T10:15:18.519Z,21.37
2019-05-23T10:17:46.998Z,21.93
2019-05-23T10:20:16.458Z,23.00
2019-05-23T10:22:45.162Z,20.93
2019-05-23T10:25:13.788Z,20.97
2019-05-23T10:27:42.282Z,24.37
2019-05-23T10:30:12.646Z,23.20
2019-05-23T10:32:41.074Z,25.17
2019-05-23T10:35:09.846Z,24.70
2019-05-23T10:37:38.634Z,23.20
2019-05-23T10:40:08.387Z,21.50
2019-05-23T10:42:37.972Z,22.40
2019-05-23T10:45:10.085Z,21.27
2019-05-23T10:47:38.921Z,21.93
2019-05-23T10:50:10.109Z,29.93
2019-05-23T10:52:38.843Z,23.93
2019-05-23T10:55:07.568Z,23.70
2019-05-23T10:57:36.534Z,24.83
2019-05-23T11:00:11.448Z,154.10
2019-05-23T11:02:40.837Z,71.53
2019-05-23T11:05:13.610Z,24.93
2019-05-23T11:07:41.948Z,23.80
2019-05-23T11:10:11.686Z,22.20
2019-05-23T11:12:40.820Z,24.50
2019-05-23T11:15:09.705Z,24.00
2019-05-23T11:17:38.898Z,24.43
2019-05-23T11:20:08.423Z,24.57
2019-05-23T11:22:36.827Z,22.17
2019-05-23T11:25:07.801Z,21.33
2019-05-23T11:27:37.037Z,21.43
2019-05-23T11:30:09.932Z,21.60
2019-05-23T11:32:38.331Z,22.57
2019-05-23T11:35:07.285Z,21.50
2019-05-23T11:37:35.924Z,22.17
2019-05-23T11:40:09.658Z,24.17
2019-05-23T11:42:38.065Z,23.43
2019-05-23T11:45:08.071Z,22.10
2019-05-23T11:47:36.699Z,19.93
2019-05-23T11:50:06.770Z,21.90
2019-05-23T11:52:35.229Z,21.80
2019-05-23T11:55:08.295Z,20.50
2019-05-23T11:57:41.376Z,18.93
2019-05-23T12:00:12.276Z,16.03
2019-05-23T12:02:45.500Z,17.70
2019-05-23T12:05:16.250Z,13.60
2019-05-23T12:07:44.958Z,14.53
2019-05-23T12:10:13.758Z,18.47
2019-05-23T12:12:42.488Z,14.07
2019-05-23T12:15:14.066Z,14.70
2019-05-23T12:17:42.914Z,13.50
2019-05-23T12:20:12.250Z,16.13
2019-05-23T12:22:41.052Z,13.53
2019-05-23T12:25:21.784Z,13.37
2019-05-23T12:27:43.290Z,16.83
2019-05-23T12:30:14.906Z,14.37
2019-05-23T12:32:43.679Z,14.87
2019-05-23T12:35:12.526Z,12.23
2019-05-23T12:37:41.006Z,12.87
2019-05-23T12:40:11.367Z,13.47
2019-05-23T12:42:39.853Z,13.10
2019-05-23T12:45:09.776Z,13.13
2019-05-23T12:47:43.083Z,14.10
2019-05-23T12:50:13.581Z,13.70
2019-05-23T12:52:41.979Z,12.43
2019-05-23T12:55:10.785Z,13.13
2019-05-23T12:57:39.355Z,10.53
2019-05-23T13:00:10.489Z,11.13
2019-05-23T13:02:38.902Z,11.17
2019-05-23T13:05:09.009Z,12.17
2019-05-23T13:07:37.930Z,11.03
2019-05-23T13:10:08.074Z,11.13
2019-05-23T13:12:36.510Z,10.77
2019-05-23T13:15:06.911Z,10.00
2019-05-23T13:17:35.523Z,9.37
2019-05-23T13:20:09.364Z,10.20
2019-05-23T13:22:38.001Z,10.07
2019-05-23T13:25:10.356Z,10.03
2019-05-23T13:27:38.794Z,10.33
2019-05-23T13:30:08.485Z,10.53
2019-05-23T13:32:37.744Z,10.43
2019-05-23T13:35:11.091Z,10.33
2019-05-23T13:37:52.891Z,11.50
2019-05-23T13:40:12.327Z,10.87
2019-05-23T13:42:43.016Z,11.40
2019-05-23T13:45:13.926Z,11.60
2019-05-23T13:47:46.254Z,11.20
2019-05-23T13:50:15.774Z,10.23
2019-05-23T13:52:46.198Z,10.00
2019-05-23T13:55:15.317Z,9.87
2019-05-23T13:57:43.780Z,11.10
2019-05-23T14:00:13.491Z,10.43
2019-05-23T14:02:42.182Z,10.73
2019-05-23T14:05:10.976Z,10.63
2019-05-23T14:07:39.660Z,9.30
2019-05-23T14:10:10.185Z,9.73
2019-05-23T14:12:39.085Z,9.30
2019-05-23T14:15:10.284Z,9.50
2019-05-23T14:17:45.864Z,10.10
2019-05-23T14:20:15.199Z,9.80
2019-05-23T14:22:57.832Z,11.23
2019-05-23T14:25:26.265Z,10.17
2019-05-23T14:28:02.085Z,10.77
2019-05-23T14:30:38.415Z,10.10
2019-05-23T14:33:27.275Z,9.30
2019-05-23T14:36:09.902Z,11.57
2019-05-23T14:38:38.540Z,9.13
2019-05-23T14:41:07.614Z,10.40
2019-05-23T14:43:36.221Z,9.30
2019-05-23T14:46:09.560Z,9.93
2019-05-23T14:48:42.466Z,9.33
2019-05-23T14:51:29.245Z,9.10
2019-05-23T14:53:59.347Z,9.30
2019-05-23T14:56:32.724Z,9.60
2019-05-23T14:59:01.282Z,9.40
2019-05-23T15:01:32.098Z,10.27
2019-05-23T15:04:00.540Z,10.63
2019-05-23T15:06:29.249Z,10.00
2019-05-23T15:08:57.675Z,10.00
2019-05-23T15:11:26.067Z,9.50
2019-05-23T15:13:54.840Z,8.73
2019-05-23T15:16:23.952Z,9.30
2019-05-23T15:18:55.517Z,9.47
2019-05-23T15:21:24.025Z,9.80
2019-05-23T15:23:52.458Z,9.70
2019-05-23T15:26:23.373Z,9.60
2019-05-23T15:28:51.284Z,8.87
2019-05-23T15:31:20.429Z,9.30
2019-05-23T15:33:48.844Z,9.80
2019-05-23T15:36:17.582Z,10.17
2019-05-23T15:38:46.504Z,9.20
2019-05-23T15:41:14.885Z,9.00
2019-05-23T15:43:43.301Z,9.43
2019-05-23T15:46:11.680Z,8.43
2019-05-23T15:48:40.401Z,9.23
2019-05-23T15:51:10.424Z,8.43
2019-05-23T15:53:46.218Z,8.50
2019-05-23T15:56:32.848Z,10.20
2019-05-23T15:59:18.245Z,8.77
2019-05-23T16:01:54.254Z,9.10
2019-05-23T16:04:25.787Z,8.60
2019-05-23T16:06:54.709Z,8.80
2019-05-23T16:09:29.979Z,8.77
2019-05-23T16:11:54.362Z,11.90
2019-05-23T16:14:27.171Z,9.53
2019-05-23T16:16:57.195Z,9.70
2019-05-23T16:19:26.094Z,8.80
2019-05-23T16:21:54.737Z,9.37
2019-05-23T16:24:23.597Z,10.57
2019-05-23T16:26:52.313Z,9.17
2019-05-23T16:29:20.972Z,9.63
2019-05-23T16:31:49.432Z,9.20
2019-05-23T16:34:18.012Z,8.43
2019-05-23T16:36:48.833Z,8.30
2019-05-23T16:39:17.272Z,8.17
2019-05-23T16:41:45.643Z,7.70
2019-05-23T16:44:16.885Z,7.67
2019-05-23T16:46:46.807Z,8.30
2019-05-23T16:49:15.392Z,7.57
2019-05-23T16:51:43.965Z,8.30
2019-05-23T16:54:12.476Z,7.87
2019-05-23T16:56:57.592Z,8.00
2019-05-23T16:59:30.274Z,8.10
2019-05-23T17:02:06.543Z,7.70
2019-05-23T17:04:48.877Z,9.43
2019-05-23T17:07:21.890Z,7.53
2019-05-23T17:10:08.153Z,10.57
2019-05-23T17:12:38.425Z,8.40
2019-05-23T17:15:12.838Z,9.20
2019-05-23T17:18:02.047Z,8.67
2019-05-23T17:20:31.823Z,8.10
2019-05-23T17:23:17.810Z,8.33
2019-05-23T17:26:04.025Z,8.33
2019-05-23T17:28:40.050Z,7.53
2019-05-23T17:31:10.524Z,8.33
2019-05-23T17:33:38.985Z,7.33
2019-05-23T17:36:07.388Z,7.23
2019-05-23T17:38:36.048Z,7.10
2019-05-23T17:41:04.600Z,9.13
2019-05-23T17:43:33.106Z,6.97
2019-05-23T17:46:01.518Z,7.80
2019-05-23T17:48:30.162Z,7.47
2019-05-23T17:50:58.873Z,6.93
2019-05-23T17:53:27.734Z,6.60
2019-05-23T17:55:56.480Z,6.30
2019-05-23T17:58:25.774Z,7.07
2019-05-23T18:00:54.267Z,6.90
2019-05-23T18:03:23.767Z,7.53
2019-05-23T18:05:52.507Z,7.50
2019-05-23T18:08:20.956Z,6.97
2019-05-23T18:10:49.343Z,6.73
2019-05-23T18:13:18.560Z,6.73
2019-05-23T18:15:47.104Z,6.93
2019-05-23T18:18:15.977Z,7.57
2019-05-23T18:20:45.599Z,6.20
2019-05-23T18:23:14.468Z,7.33
2019-05-23T18:25:43.397Z,7.03
2019-05-23T18:28:13.707Z,7.50
2019-05-23T18:30:46.669Z,7.53
2019-05-23T18:33:16.613Z,8.43
2019-05-23T18:35:45.047Z,8.47
2019-05-23T18:38:13.494Z,7.30
2019-05-23T18:40:42.180Z,8.43
2019-05-23T18:43:11.295Z,8.00
2019-05-23T18:45:41.240Z,7.93
2019-05-23T18:48:09.625Z,7.40
2019-05-23T18:50:38.559Z,7.93
2019-05-23T18:53:08.588Z,8.20
2019-05-23T18:55:38.109Z,7.07
2019-05-23T18:58:06.916Z,7.00
2019-05-23T19:00:57.735Z,7.70
2019-05-23T19:03:28.624Z,7.50
2019-05-23T19:05:57.171Z,7.17
2019-05-23T19:08:25.960Z,7.83
2019-05-23T19:10:54.430Z,7.60
2019-05-23T19:13:26.464Z,8.37
2019-05-23T19:15:53.126Z,7.93
2019-05-23T19:18:23.776Z,8.37
2019-05-23T19:20:54.823Z,8.20
2019-05-23T19:23:24.463Z,8.43
2019-05-23T19:25:53.189Z,7.67
2019-05-23T19:28:22.422Z,7.50
2019-05-23T19:30:51.246Z,8.50
2019-05-23T19:33:21.106Z,7.80
2019-05-23T19:35:49.862Z,8.03
2019-05-23T19:38:18.432Z,7.27
2019-05-23T19:40:47.216Z,8.33
2019-05-23T19:43:17.794Z,8.30
2019-05-23T19:45:46.166Z,8.10
2019-05-23T19:48:14.847Z,8.97
2019-05-23T19:50:43.577Z,7.10
2019-05-23T19:53:12.149Z,8.00
2019-05-23T19:55:41.024Z,8.00
2019-05-23T19:58:09.594Z,7.33
2019-05-23T20:00:38.802Z,7.10
2019-05-23T20:03:09.531Z,7.43
2019-05-23T20:05:43.034Z,7.70
2019-05-23T20:08:11.842Z,7.10
2019-05-23T20:10:40.898Z,7.40
2019-05-23T20:13:09.364Z,8.37
2019-05-23T20:15:37.968Z,7.73
2019-05-23T20:18:08.259Z,7.73
2019-05-23T20:20:39.773Z,7.33
2019-05-23T20:23:09.572Z,8.30
2019-05-23T20:25:38.392Z,9.60
2019-05-23T20:28:07.640Z,9.40
2019-05-23T20:30:45.684Z,8.97
2019-05-23T20:33:15.097Z,9.17
2019-05-23T20:35:43.562Z,10.03
2019-05-23T20:38:11.946Z,8.40
2019-05-23T20:40:40.464Z,9.10
2019-05-23T20:43:09.230Z,9.20
2019-05-23T20:45:38.043Z,9.23
2019-05-23T20:48:07.067Z,10.00
2019-05-23T20:50:35.534Z,9.03
2019-05-23T20:53:04.477Z,10.03
2019-05-23T20:55:33.478Z,9.27
2019-05-23T20:58:01.834Z,9.80
2019-05-23T21:00:34.661Z,9.47
2019-05-23T21:03:04.054Z,9.80
2019-05-23T21:05:33.059Z,10.50
2019-05-23T21:08:01.447Z,9.93
2019-05-23T21:10:38.684Z,10.80
2019-05-23T21:13:07.078Z,9.73
2019-05-23T21:15:35.475Z,10.53
2019-05-23T21:18:03.872Z,9.30
2019-05-23T21:20:32.276Z,9.87
2019-05-23T21:23:00.680Z,10.23
2019-05-23T21:25:29.426Z,9.80
2019-05-23T21:27:57.906Z,10.93
2019-05-23T21:30:26.484Z,10.90
2019-05-23T21:32:54.876Z,11.47
2019-05-23T21:35:23.592Z,11.50
2019-05-23T21:37:52.021Z,9.80
2019-05-23T21:40:38.584Z,10.93
2019-05-23T21:43:07.151Z,10.03
2019-05-23T21:45:35.810Z,9.93
2019-05-23T21:48:04.703Z,9.30
2019-05-23T21:50:33.247Z,10.00
2019-05-23T21:53:02.115Z,10.47
2019-05-23T21:55:41.099Z,9.67
2019-05-23T21:58:11.590Z,9.43
2019-05-23T22:01:08.465Z,9.20
2019-05-23T22:03:59.280Z,8.67
2019-05-23T22:06:44.034Z,9.43
2019-05-23T22:09:14.209Z,9.37
2019-05-23T22:11:42.861Z,8.00
2019-05-23T22:14:11.275Z,8.30
2019-05-23T22:16:39.653Z,9.17
2019-05-23T22:19:09.688Z,10.30
2019-05-23T22:21:38.295Z,10.37
2019-05-23T22:24:08.399Z,9.33
2019-05-23T22:26:37.010Z,8.97
2019-05-23T22:29:06.786Z,8.80
2019-05-23T22:31:35.543Z,9.77
2019-05-23T22:34:06.034Z,10.10
2019-05-23T22:36:34.576Z,8.73
2019-05-23T22:39:04.835Z,9.40
2019-05-23T22:41:33.314Z,8.90
2019-05-23T22:44:02.182Z,9.33
2019-05-23T22:46:30.633Z,9.20
2019-05-23T22:48:59.043Z,10.00
2019-05-23T22:51:27.687Z,9.83
2019-05-23T22:53:56.149Z,9.60
2019-05-23T22:56:24.954Z,9.47
2019-05-23T22:58:54.995Z,9.20
2019-05-23T23:01:25.258Z,9.37
2019-05-23T23:03:53.943Z,9.40
2019-05-23T23:06:22.518Z,8.60
2019-05-23T23:08:50.902Z,9.67
2019-05-23T23:11:19.466Z,10.00
2019-05-23T23:13:47.859Z,9.67
2019-05-23T23:16:16.259Z,10.10
2019-05-23T23:18:44.668Z,9.90
2019-05-23T23:21:13.289Z,9.83
2019-05-23T23:23:41.942Z,9.90
2019-05-23T23:26:10.328Z,10.10
2019-05-23T23:28:38.735Z,10.70
2019-05-23T23:31:07.348Z,10.00
2019-05-23T23:33:35.738Z,9.83
2019-05-23T23:36:04.221Z,11.00
2019-05-23T23:38:32.950Z,11.70
2019-05-23T23:41:01.637Z,9.67
2019-05-23T23:43:30.100Z,10.07
2019-05-23T23:46:15.990Z,9.93
2019-05-23T23:49:02.712Z,10.73
2019-05-23T23:51:49.205Z,10.47
2019-05-23T23:54:36.011Z,9.80
2019-05-23T23:57:22.556Z,9.80
2019-05-23T23:59:50.260Z,8.90
